Rumford Center, Maine
Current Conditions -  °F | °C
As of 12:52 AM on Tuesday 21 Oct 2014 (Local Time) from KBML Reporting Station
Few Clouds Few Clouds  
Wind Chill: 33°   Ceiling: Unl
Heat Index: 33°   Visibility: 10mi
Dew Point: 31°   Wind: 0mph
Humidity: 92%   Direction: NA
Pressure: 29.97"   Gusts: NA
Location:  44.51°N, 70.62°W
Report Text: KBML 210452Z AUTO 00000KT 10SM FEW090 01/M01 A2997 RMK AO2 SLP159 T00061006 401060000
Loading
Personal Weather Stations






























Interactive Weather Map
Tropical Storm Tracking
New forecast layout! Learn more

10-Day Weather Forecast

Advertisements
Track Severe Weather on mobile